createdAt,value
2018-07-19T00:01:58.401Z,24.40
2018-07-19T00:04:26.974Z,24.40
2018-07-19T00:06:55.517Z,24.40
2018-07-19T00:11:52.287Z,24.30
2018-07-19T00:16:49.290Z,24.30
2018-07-19T00:19:17.893Z,24.20
2018-07-19T00:21:46.419Z,24.20
2018-07-19T00:24:14.942Z,24.10
2018-07-19T00:26:43.450Z,24.10
2018-07-19T00:29:12.128Z,24.10
2018-07-19T00:31:40.645Z,24.10
2018-07-19T00:34:09.181Z,24.10
2018-07-19T00:36:37.768Z,24.00
2018-07-19T00:39:07.798Z,24.00
2018-07-19T00:41:36.463Z,23.90
2018-07-19T00:44:05.033Z,23.90
2018-07-19T00:46:33.563Z,23.90
2018-07-19T00:49:02.091Z,23.80
2018-07-19T00:51:30.620Z,23.80
2018-07-19T00:53:59.152Z,23.80
2018-07-19T00:56:27.700Z,23.80
2018-07-19T00:58:56.222Z,23.70
2018-07-19T01:01:24.738Z,23.70
2018-07-19T01:03:53.266Z,23.70
2018-07-19T01:06:21.761Z,23.70
2018-07-19T01:11:18.541Z,23.60
2018-07-19T01:13:47.099Z,23.60
2018-07-19T01:16:15.617Z,23.50
2018-07-19T01:18:44.149Z,23.50
2018-07-19T01:21:12.673Z,23.50
2018-07-19T01:23:41.218Z,23.40
2018-07-19T01:26:09.758Z,23.40
2018-07-19T01:28:38.341Z,23.40
2018-07-19T01:31:06.895Z,23.30
2018-07-19T01:33:35.421Z,23.30
2018-07-19T01:36:03.974Z,23.30
2018-07-19T01:38:32.478Z,23.30
2018-07-19T01:41:09.915Z,23.20
2018-07-19T01:46:06.694Z,23.20
2018-07-19T01:48:35.323Z,23.20
2018-07-19T01:51:03.879Z,23.20
2018-07-19T01:53:32.400Z,23.20
2018-07-19T01:56:00.923Z,23.10
2018-07-19T01:58:29.418Z,23.10
2018-07-19T02:00:57.972Z,23.10
2018-07-19T02:03:26.477Z,23.10
2018-07-19T02:05:55.039Z,23.00
2018-07-19T02:08:23.523Z,23.00
2018-07-19T02:10:52.172Z,23.00
2018-07-19T02:13:20.670Z,23.00
2018-07-19T02:15:49.206Z,22.90
2018-07-19T02:18:17.704Z,22.90
2018-07-19T02:20:46.243Z,22.90
2018-07-19T02:23:14.943Z,22.80
2018-07-19T02:25:43.493Z,22.80
2018-07-19T02:28:12.002Z,22.80
2018-07-19T02:30:40.547Z,22.80
2018-07-19T02:33:09.058Z,22.70
2018-07-19T02:35:37.607Z,22.70
2018-07-19T02:38:06.346Z,22.70
2018-07-19T02:40:34.894Z,22.60
2018-07-19T02:43:03.397Z,22.60
2018-07-19T02:45:31.922Z,22.60
2018-07-19T02:48:00.530Z,22.60
2018-07-19T02:50:29.098Z,22.50
2018-07-19T02:52:57.608Z,22.50
2018-07-19T02:55:26.190Z,22.50
2018-07-19T02:57:54.690Z,22.50
2018-07-19T03:00:23.224Z,22.40
2018-07-19T03:02:51.751Z,22.40
2018-07-19T03:05:20.276Z,22.40
2018-07-19T03:07:48.828Z,22.40
2018-07-19T03:10:17.622Z,22.40
2018-07-19T03:12:46.269Z,22.30
2018-07-19T03:15:14.806Z,22.30
2018-07-19T03:17:43.335Z,22.30
2018-07-19T03:20:12.022Z,22.30
2018-07-19T03:22:40.637Z,22.30
2018-07-19T03:25:09.195Z,22.20
2018-07-19T03:27:37.726Z,22.20
2018-07-19T03:30:06.328Z,22.20
2018-07-19T03:32:34.841Z,22.10
2018-07-19T03:35:03.504Z,22.10
2018-07-19T03:37:32.011Z,22.10
2018-07-19T03:40:00.534Z,22.10
2018-07-19T03:42:29.081Z,22.00
2018-07-19T03:44:57.730Z,22.00
2018-07-19T03:47:26.254Z,22.00
2018-07-19T03:49:54.811Z,22.00
2018-07-19T03:52:23.413Z,22.00
2018-07-19T03:54:51.944Z,22.00
2018-07-19T03:57:20.481Z,22.00
2018-07-19T03:59:49.003Z,21.90
2018-07-19T04:02:17.562Z,21.90
2018-07-19T04:04:46.118Z,21.90
2018-07-19T04:07:14.674Z,21.90
2018-07-19T04:09:43.545Z,21.80
2018-07-19T04:12:12.088Z,21.80
2018-07-19T04:14:40.875Z,21.80
2018-07-19T04:17:09.544Z,21.70
2018-07-19T04:19:38.029Z,21.80
2018-07-19T04:22:06.655Z,21.70
2018-07-19T04:24:35.214Z,21.70
2018-07-19T04:27:03.781Z,21.70
2018-07-19T04:29:32.300Z,21.70
2018-07-19T04:32:00.878Z,21.60
2018-07-19T04:34:29.438Z,21.60
2018-07-19T04:36:57.967Z,21.60
2018-07-19T04:39:26.502Z,21.60
2018-07-19T04:41:55.143Z,21.60
2018-07-19T04:44:23.683Z,21.60
2018-07-19T04:46:58.836Z,21.50
2018-07-19T04:49:29.915Z,21.60
2018-07-19T04:51:58.863Z,21.50
2018-07-19T04:54:27.555Z,21.50
2018-07-19T04:56:56.081Z,21.50
2018-07-19T04:59:24.897Z,21.50
2018-07-19T05:01:53.509Z,21.50
2018-07-19T05:04:21.966Z,21.40
2018-07-19T05:06:50.525Z,21.40
2018-07-19T05:09:19.093Z,21.40
2018-07-19T05:11:47.685Z,21.40
2018-07-19T05:14:16.246Z,21.40
2018-07-19T05:16:44.796Z,21.40
2018-07-19T05:19:13.405Z,21.40
2018-07-19T05:21:41.949Z,21.40
2018-07-19T05:24:10.535Z,21.30
2018-07-19T05:26:39.109Z,21.40
2018-07-19T05:29:07.839Z,21.30
2018-07-19T05:31:36.387Z,21.30
2018-07-19T05:34:04.906Z,21.40
2018-07-19T05:36:33.474Z,21.30
2018-07-19T05:39:02.106Z,21.40
2018-07-19T05:41:30.661Z,21.40
2018-07-19T05:43:59.185Z,21.30
2018-07-19T05:46:27.720Z,21.40
2018-07-19T05:48:56.352Z,21.40
2018-07-19T05:51:26.163Z,21.30
2018-07-19T05:53:54.748Z,21.30
2018-07-19T05:56:23.428Z,21.30
2018-07-19T05:58:52.286Z,21.30
2018-07-19T06:01:21.469Z,21.30
2018-07-19T06:03:50.264Z,21.30
2018-07-19T06:06:18.789Z,21.30
2018-07-19T06:08:47.390Z,21.40
2018-07-19T06:11:15.910Z,21.30
2018-07-19T06:13:44.493Z,21.30
2018-07-19T06:16:13.264Z,21.30
2018-07-19T06:19:23.134Z,21.40
2018-07-19T06:22:03.853Z,21.30
2018-07-19T06:24:32.488Z,21.00
2018-07-19T06:27:01.066Z,21.00
2018-07-19T06:29:29.629Z,21.10
2018-07-19T06:31:58.173Z,21.10
2018-07-19T06:34:26.831Z,21.10
2018-07-19T06:36:55.693Z,21.20
2018-07-19T06:39:24.295Z,21.20
2018-07-19T06:41:52.861Z,21.20
2018-07-19T06:44:21.577Z,21.20
2018-07-19T06:46:50.155Z,21.20
2018-07-19T06:49:18.797Z,21.20
2018-07-19T06:51:47.348Z,21.20
2018-07-19T06:54:15.886Z,21.20
2018-07-19T06:56:44.411Z,21.20
2018-07-19T06:59:12.960Z,21.20
2018-07-19T07:01:41.485Z,21.20
2018-07-19T07:04:10.021Z,21.30
2018-07-19T07:06:38.564Z,21.30
2018-07-19T07:09:09.589Z,21.30
2018-07-19T07:11:38.099Z,21.30
2018-07-19T07:14:07.254Z,21.30
2018-07-19T07:16:35.789Z,21.30
2018-07-19T07:19:04.637Z,21.30
2018-07-19T07:21:33.237Z,21.30
2018-07-19T07:24:02.618Z,21.40
2018-07-19T07:26:31.192Z,21.40
2018-07-19T07:28:59.771Z,21.40
2018-07-19T07:31:28.294Z,21.40
2018-07-19T07:33:56.944Z,21.40
2018-07-19T07:36:25.507Z,21.40
2018-07-19T07:38:54.252Z,21.50
2018-07-19T07:41:22.770Z,21.50
2018-07-19T07:43:51.445Z,21.50
2018-07-19T07:46:20.007Z,21.50
2018-07-19T07:48:48.570Z,21.50
2018-07-19T07:51:17.115Z,21.50
2018-07-19T07:53:45.701Z,21.60
2018-07-19T07:56:14.270Z,21.60
2018-07-19T07:58:42.813Z,21.60
2018-07-19T08:01:11.358Z,21.60
2018-07-19T08:03:40.066Z,21.60
2018-07-19T08:06:08.630Z,21.70
2018-07-19T08:08:37.188Z,21.70
2018-07-19T08:11:05.805Z,21.70
2018-07-19T08:13:34.361Z,21.70
2018-07-19T08:16:02.977Z,21.70
2018-07-19T08:18:31.684Z,21.70
2018-07-19T08:21:01.477Z,21.70
2018-07-19T08:23:31.141Z,21.70
2018-07-19T08:25:59.694Z,21.70
2018-07-19T08:28:29.245Z,21.80
2018-07-19T08:30:57.813Z,21.80
2018-07-19T08:33:26.344Z,21.80
2018-07-19T08:35:55.352Z,21.80
2018-07-19T08:38:24.318Z,21.80
2018-07-19T08:40:52.869Z,21.80
2018-07-19T08:43:21.609Z,21.80
2018-07-19T08:45:50.179Z,21.80
2018-07-19T08:48:18.700Z,21.80
2018-07-19T08:50:47.253Z,21.90
2018-07-19T08:53:16.149Z,21.90
2018-07-19T08:55:44.714Z,21.80
2018-07-19T08:58:13.332Z,21.90
2018-07-19T09:00:41.942Z,21.90
2018-07-19T09:03:10.470Z,21.90
2018-07-19T09:05:39.133Z,21.90
2018-07-19T09:08:07.687Z,21.90
2018-07-19T09:10:36.240Z,22.00
2018-07-19T09:13:04.909Z,22.00
2018-07-19T09:15:33.608Z,22.00
2018-07-19T09:18:02.161Z,22.00
2018-07-19T09:20:30.727Z,22.00
2018-07-19T09:25:27.554Z,22.10
2018-07-19T09:27:56.096Z,22.10
2018-07-19T09:30:24.658Z,22.20
2018-07-19T09:32:53.392Z,22.20
2018-07-19T09:35:21.942Z,22.20
2018-07-19T09:37:50.503Z,22.30
2018-07-19T09:40:19.145Z,22.40
2018-07-19T09:42:47.766Z,22.50
2018-07-19T09:45:16.330Z,22.60
2018-07-19T09:47:44.881Z,22.70
2018-07-19T09:50:13.434Z,22.70
2018-07-19T09:52:42.356Z,22.80
2018-07-19T09:55:10.939Z,22.90
2018-07-19T09:57:39.477Z,23.10
2018-07-19T10:00:08.223Z,23.20
2018-07-19T10:02:36.867Z,23.30
2018-07-19T10:05:05.624Z,23.40
2018-07-19T10:07:34.309Z,23.50
2018-07-19T10:10:02.924Z,23.60
2018-07-19T10:12:31.400Z,23.70
2018-07-19T10:15:00.044Z,23.80
2018-07-19T10:17:28.598Z,23.90
2018-07-19T10:19:57.162Z,24.10
2018-07-19T10:22:25.794Z,24.20
2018-07-19T10:24:54.388Z,24.30
2018-07-19T10:27:22.926Z,24.40
2018-07-19T10:29:51.479Z,24.50
2018-07-19T10:32:20.141Z,25.20
2018-07-19T10:34:48.562Z,27.20
2018-07-19T10:37:17.127Z,28.30
2018-07-19T10:39:46.358Z,29.00
2018-07-19T10:42:14.964Z,29.30
2018-07-19T10:44:43.508Z,29.50
2018-07-19T10:47:12.258Z,29.50
2018-07-19T10:49:40.774Z,29.70
2018-07-19T10:52:09.346Z,29.70
2018-07-19T10:54:37.873Z,29.90
2018-07-19T10:57:06.706Z,30.10
2018-07-19T10:59:35.214Z,30.10
2018-07-19T11:02:03.786Z,30.00
2018-07-19T11:04:32.360Z,30.00
2018-07-19T11:07:00.899Z,30.00
2018-07-19T11:09:29.418Z,30.00
2018-07-19T11:11:57.981Z,30.10
2018-07-19T11:14:26.526Z,30.20
2018-07-19T11:16:55.314Z,30.30
2018-07-19T11:21:52.203Z,30.30
2018-07-19T11:24:20.755Z,30.30
2018-07-19T11:26:49.335Z,30.30
2018-07-19T11:29:17.845Z,30.30
2018-07-19T11:31:46.406Z,30.30
2018-07-19T11:34:14.930Z,30.30
2018-07-19T11:36:43.531Z,30.40
2018-07-19T11:39:12.062Z,30.40
2018-07-19T11:41:40.753Z,30.50
2018-07-19T11:44:09.286Z,30.50
2018-07-19T11:46:37.822Z,30.60
2018-07-19T11:49:06.394Z,30.60
2018-07-19T11:51:34.933Z,30.60
2018-07-19T11:54:03.494Z,30.60
2018-07-19T11:56:32.034Z,30.70
2018-07-19T11:59:00.547Z,30.70
2018-07-19T12:01:29.123Z,30.70
2018-07-19T12:03:57.746Z,30.70
2018-07-19T12:06:26.288Z,30.70
2018-07-19T12:08:54.796Z,30.80
2018-07-19T12:11:23.376Z,30.90
2018-07-19T12:13:51.918Z,30.70
2018-07-19T12:18:48.857Z,30.80
2018-07-19T12:21:17.526Z,30.80
2018-07-19T12:23:46.061Z,30.80
2018-07-19T12:26:14.608Z,30.80
2018-07-19T12:28:43.166Z,30.90
2018-07-19T12:31:11.731Z,30.90
2018-07-19T12:33:40.295Z,30.90
2018-07-19T12:36:08.875Z,30.90
2018-07-19T12:38:37.478Z,30.90
2018-07-19T12:41:06.004Z,30.90
2018-07-19T12:43:34.629Z,30.90
2018-07-19T12:46:03.266Z,30.90
2018-07-19T12:48:32.207Z,30.90
2018-07-19T12:51:00.854Z,31.00
2018-07-19T12:53:29.461Z,31.00
2018-07-19T12:55:57.990Z,31.00
2018-07-19T12:58:26.529Z,31.00
2018-07-19T13:00:55.052Z,31.00
2018-07-19T13:05:51.782Z,31.00
2018-07-19T13:08:20.339Z,31.00
2018-07-19T13:10:48.860Z,30.80
2018-07-19T13:13:17.438Z,30.80
2018-07-19T13:15:45.940Z,30.80
2018-07-19T13:18:14.481Z,30.60
2018-07-19T13:20:42.993Z,30.50
2018-07-19T13:23:11.613Z,30.50
2018-07-19T13:25:40.117Z,30.50
2018-07-19T13:28:08.662Z,30.40
2018-07-19T13:30:37.387Z,30.40
2018-07-19T13:33:05.961Z,30.40
2018-07-19T13:35:34.966Z,30.30
2018-07-19T13:38:03.514Z,30.30
2018-07-19T13:43:00.261Z,30.20
2018-07-19T13:45:28.790Z,30.20
2018-07-19T13:47:57.340Z,30.20
2018-07-19T13:50:25.871Z,30.20
2018-07-19T13:53:05.620Z,30.20
2018-07-19T13:55:34.478Z,30.20
2018-07-19T13:58:03.030Z,30.20
2018-07-19T14:00:31.530Z,30.20
2018-07-19T14:03:00.196Z,30.20
2018-07-19T14:05:28.757Z,30.20
2018-07-19T14:07:57.334Z,30.20
2018-07-19T14:10:25.996Z,30.30
2018-07-19T14:12:54.632Z,30.30
2018-07-19T14:15:23.157Z,30.10
2018-07-19T14:17:51.654Z,28.80
2018-07-19T14:20:20.194Z,28.20
2018-07-19T14:22:48.701Z,28.10
2018-07-19T14:25:17.250Z,28.00
2018-07-19T14:27:45.748Z,27.90
2018-07-19T14:30:14.268Z,27.80
2018-07-19T14:32:42.794Z,27.80
2018-07-19T14:35:11.667Z,27.80
2018-07-19T14:37:40.169Z,27.80
2018-07-19T14:40:08.733Z,27.70
2018-07-19T14:42:37.246Z,27.80
2018-07-19T14:45:05.819Z,27.80
2018-07-19T14:47:34.359Z,27.80
2018-07-19T14:50:02.944Z,27.80
2018-07-19T14:52:31.476Z,27.80
2018-07-19T14:57:28.198Z,27.80
2018-07-19T14:59:56.745Z,27.80
2018-07-19T15:02:25.302Z,27.80
2018-07-19T15:07:22.030Z,27.70
2018-07-19T15:09:50.557Z,27.60
2018-07-19T15:12:19.194Z,27.60
2018-07-19T15:14:47.703Z,27.60
2018-07-19T15:17:16.209Z,27.60
2018-07-19T15:19:44.818Z,27.50
2018-07-19T15:22:13.454Z,27.50
2018-07-19T15:24:41.945Z,27.50
2018-07-19T15:27:10.441Z,27.50
2018-07-19T15:29:38.945Z,27.50
2018-07-19T15:32:08.099Z,27.50
2018-07-19T15:34:36.590Z,27.50
2018-07-19T15:37:05.105Z,27.40
2018-07-19T15:39:33.636Z,27.40
2018-07-19T15:42:02.162Z,27.40
2018-07-19T15:46:54.112Z,27.40
2018-07-19T15:49:22.646Z,27.30
2018-07-19T15:51:51.485Z,27.30
2018-07-19T15:54:19.972Z,27.30
2018-07-19T15:56:48.501Z,27.30
2018-07-19T15:59:17.021Z,27.30
2018-07-19T16:01:45.893Z,27.30
2018-07-19T16:04:14.405Z,27.20
2018-07-19T16:06:43.691Z,27.20
2018-07-19T16:11:41.385Z,27.20
2018-07-19T16:16:38.174Z,27.20
2018-07-19T16:19:06.696Z,27.20
2018-07-19T16:21:35.247Z,27.20
2018-07-19T16:24:03.758Z,27.20
2018-07-19T16:26:32.309Z,27.20
2018-07-19T16:29:00.810Z,27.10
2018-07-19T16:31:29.349Z,27.10
2018-07-19T16:33:57.867Z,27.10
2018-07-19T16:36:26.357Z,27.10
2018-07-19T16:38:54.869Z,27.00
2018-07-19T16:41:23.474Z,27.00
2018-07-19T16:43:52.912Z,27.00
2018-07-19T16:46:21.607Z,27.00
2018-07-19T16:48:50.192Z,27.00
2018-07-19T16:51:18.778Z,28.30
2018-07-19T16:53:47.347Z,29.50
2018-07-19T16:56:15.932Z,30.60
2018-07-19T16:58:44.447Z,31.30
2018-07-19T17:01:12.949Z,31.60
2018-07-19T17:03:41.449Z,31.80
2018-07-19T17:08:38.207Z,32.10
2018-07-19T17:11:06.918Z,32.30
2018-07-19T17:13:35.740Z,32.30
2018-07-19T17:16:04.596Z,32.30
2018-07-19T17:18:33.316Z,32.30
2018-07-19T17:21:02.086Z,32.30
2018-07-19T17:23:31.194Z,32.40
2018-07-19T17:25:59.789Z,32.30
2018-07-19T17:28:28.318Z,32.40
2018-07-19T17:30:57.014Z,32.40
2018-07-19T17:33:25.581Z,32.40
2018-07-19T17:38:22.385Z,32.30
2018-07-19T17:40:50.929Z,32.20
2018-07-19T17:43:19.474Z,32.20
2018-07-19T17:45:48.032Z,32.20
2018-07-19T17:48:16.573Z,32.10
2018-07-19T17:50:45.081Z,32.00
2018-07-19T17:53:13.623Z,32.00
2018-07-19T17:55:42.154Z,32.00
2018-07-19T17:58:10.721Z,31.90
2018-07-19T18:00:39.311Z,31.90
2018-07-19T18:03:07.857Z,31.80
2018-07-19T18:05:36.367Z,31.80
2018-07-19T18:08:05.302Z,31.70
2018-07-19T18:10:33.857Z,31.70
2018-07-19T18:13:02.377Z,31.70
2018-07-19T18:15:30.863Z,31.60
2018-07-19T18:17:59.383Z,31.60
2018-07-19T18:22:56.149Z,31.50
2018-07-19T18:25:24.653Z,31.50
2018-07-19T18:27:53.469Z,31.40
2018-07-19T18:30:21.993Z,31.40
2018-07-19T18:32:50.486Z,31.40
2018-07-19T18:37:47.276Z,31.20
2018-07-19T18:40:15.772Z,31.20
2018-07-19T18:42:44.270Z,31.20
2018-07-19T18:45:12.809Z,31.10
2018-07-19T18:47:41.454Z,31.10
2018-07-19T18:50:09.998Z,31.10
2018-07-19T18:52:38.506Z,31.00
2018-07-19T18:55:07.034Z,30.90
2018-07-19T18:57:35.528Z,30.90
2018-07-19T19:00:04.187Z,30.90
2018-07-19T19:02:32.692Z,30.80
2018-07-19T19:05:01.199Z,30.80
2018-07-19T19:07:29.794Z,30.80
2018-07-19T19:09:58.345Z,30.70
2018-07-19T19:12:26.861Z,30.60
2018-07-19T19:14:55.390Z,30.60
2018-07-19T19:17:23.913Z,30.60
2018-07-19T19:19:52.450Z,30.50
2018-07-19T19:22:20.959Z,30.50
2018-07-19T19:24:50.293Z,30.40
2018-07-19T19:27:18.817Z,30.40
2018-07-19T19:29:47.366Z,30.30
2018-07-19T19:32:15.880Z,30.30
2018-07-19T19:34:44.424Z,30.20
2018-07-19T19:37:13.014Z,30.20
2018-07-19T19:39:41.549Z,30.20
2018-07-19T19:42:10.072Z,30.10
2018-07-19T19:44:38.649Z,30.10
2018-07-19T19:47:07.198Z,30.00
2018-07-19T19:49:35.741Z,30.00
2018-07-19T19:52:04.257Z,30.00
2018-07-19T19:54:32.949Z,29.90
2018-07-19T19:57:01.479Z,29.90
2018-07-19T19:59:30.274Z,29.80
2018-07-19T20:01:58.809Z,29.80
2018-07-19T20:06:55.556Z,29.70
2018-07-19T20:09:24.124Z,29.70
2018-07-19T20:11:52.621Z,29.60
2018-07-19T20:16:49.346Z,29.50
2018-07-19T20:19:17.926Z,29.50
2018-07-19T20:21:46.439Z,29.50
2018-07-19T20:24:14.959Z,29.40
2018-07-19T20:26:43.478Z,29.40
2018-07-19T20:29:12.010Z,29.30
2018-07-19T20:31:40.527Z,29.30
2018-07-19T20:34:09.036Z,29.20
2018-07-19T20:36:37.541Z,29.10
2018-07-19T20:39:07.430Z,29.10
2018-07-19T20:41:36.102Z,29.10
2018-07-19T20:44:04.647Z,29.10
2018-07-19T20:46:33.505Z,29.00
2018-07-19T20:49:02.364Z,29.00
2018-07-19T20:51:30.940Z,28.90
2018-07-19T20:53:59.526Z,28.90
2018-07-19T20:56:28.060Z,28.80
2018-07-19T20:58:56.570Z,28.80
2018-07-19T21:01:25.116Z,28.80
2018-07-19T21:03:53.622Z,28.80
2018-07-19T21:06:22.176Z,28.70
2018-07-19T21:08:50.658Z,28.70
2018-07-19T21:11:19.203Z,28.60
2018-07-19T21:13:47.691Z,28.60
2018-07-19T21:16:16.230Z,28.60
2018-07-19T21:18:44.947Z,28.50
2018-07-19T21:21:13.506Z,28.50
2018-07-19T21:23:42.000Z,28.40
2018-07-19T21:26:10.624Z,28.40
2018-07-19T21:28:39.081Z,28.30
2018-07-19T21:31:07.603Z,28.30
2018-07-19T21:33:36.089Z,28.30
2018-07-19T21:36:04.601Z,28.20
2018-07-19T21:38:33.104Z,28.20
2018-07-19T21:41:01.641Z,28.20
2018-07-19T21:43:30.146Z,28.10
2018-07-19T21:45:58.662Z,28.10
2018-07-19T21:48:27.145Z,28.00
2018-07-19T21:50:55.649Z,28.00
2018-07-19T21:53:24.222Z,27.90
2018-07-19T21:55:52.829Z,27.90
2018-07-19T21:58:21.399Z,27.80
2018-07-19T22:00:55.316Z,27.80
2018-07-19T22:03:23.832Z,27.80
2018-07-19T22:08:20.662Z,27.70
2018-07-19T22:10:49.217Z,27.70
2018-07-19T22:13:17.722Z,27.60
2018-07-19T22:15:46.253Z,27.60
2018-07-19T22:18:14.738Z,27.60
2018-07-19T22:20:43.590Z,27.50
2018-07-19T22:23:12.102Z,27.50
2018-07-19T22:25:40.653Z,27.40
2018-07-19T22:28:09.197Z,27.40
2018-07-19T22:30:37.773Z,27.40
2018-07-19T22:35:34.486Z,27.30
2018-07-19T22:38:02.995Z,27.20
2018-07-19T22:40:31.618Z,27.20
2018-07-19T22:43:00.142Z,27.20
2018-07-19T22:45:28.663Z,27.20
2018-07-19T22:47:57.186Z,27.10
2018-07-19T22:50:25.874Z,27.10
2018-07-19T22:52:54.507Z,27.00
2018-07-19T22:55:23.102Z,27.00
2018-07-19T22:57:51.645Z,26.90
2018-07-19T23:00:20.147Z,26.90
2018-07-19T23:02:48.652Z,26.90
2018-07-19T23:05:17.144Z,26.90
2018-07-19T23:07:45.667Z,26.80
2018-07-19T23:10:14.202Z,26.80
2018-07-19T23:12:42.742Z,26.70
2018-07-19T23:15:11.273Z,26.70
2018-07-19T23:17:39.807Z,26.70
2018-07-19T23:20:08.385Z,26.60
2018-07-19T23:22:36.928Z,26.60
2018-07-19T23:25:05.478Z,26.60
2018-07-19T23:27:34.054Z,26.50
2018-07-19T23:30:02.621Z,26.50
2018-07-19T23:32:31.221Z,26.40
2018-07-19T23:34:59.791Z,26.40
2018-07-19T23:37:32.822Z,26.40
2018-07-19T23:40:09.482Z,26.30
2018-07-19T23:42:42.029Z,26.30
2018-07-19T23:45:14.621Z,26.30
2018-07-19T23:47:44.457Z,26.20
2018-07-19T23:50:12.978Z,26.20
2018-07-19T23:52:41.507Z,26.10
2018-07-19T23:55:10.022Z,26.10
2018-07-19T23:57:38.630Z,26.10
